createdAt,value
2023-03-05T00:01:33.374Z,2.47
2023-03-05T00:03:35.397Z,2.47
2023-03-05T00:05:36.891Z,2.49
2023-03-05T00:07:38.398Z,2.48
2023-03-05T00:09:40.613Z,2.50
2023-03-05T00:11:42.185Z,2.50
2023-03-05T00:13:43.693Z,2.51
2023-03-05T00:15:45.133Z,2.52
2023-03-05T00:17:46.657Z,2.53
2023-03-05T00:19:48.185Z,2.52
2023-03-05T00:21:49.652Z,2.52
2023-03-05T00:23:52.079Z,2.51
2023-03-05T00:25:53.974Z,2.51
2023-03-05T00:27:55.520Z,2.53
2023-03-05T00:29:57.248Z,2.53
2023-03-05T00:31:58.799Z,2.53
2023-03-05T00:34:03.174Z,2.56
2023-03-05T00:36:08.395Z,2.56
2023-03-05T00:38:10.727Z,2.56
2023-03-05T00:40:12.772Z,2.54
2023-03-05T00:42:14.283Z,2.54
2023-03-05T00:44:15.876Z,2.55
2023-03-05T00:46:17.511Z,2.55
2023-03-05T00:48:19.367Z,2.55
2023-03-05T00:50:20.818Z,2.53
2023-03-05T00:52:22.295Z,2.54
2023-03-05T00:54:23.845Z,2.55
2023-03-05T00:56:25.624Z,2.58
2023-03-05T00:58:27.457Z,2.57
2023-03-05T01:00:29.118Z,2.56
2023-03-05T01:02:31.834Z,2.56
2023-03-05T01:04:34.833Z,2.55
2023-03-05T01:06:36.350Z,2.56
2023-03-05T01:08:38.259Z,2.58
2023-03-05T01:10:39.771Z,2.54
2023-03-05T01:12:41.248Z,2.49
2023-03-05T01:14:42.741Z,2.48
2023-03-05T01:16:44.282Z,2.41
2023-03-05T01:18:45.776Z,2.36
2023-03-05T01:20:48.226Z,2.33
2023-03-05T01:22:49.850Z,2.28
2023-03-05T01:24:51.343Z,2.27
2023-03-05T01:26:52.821Z,2.23
2023-03-05T01:28:54.336Z,2.23
2023-03-05T01:30:55.947Z,2.20
2023-03-05T01:32:57.441Z,2.20
2023-03-05T01:34:58.882Z,2.22
2023-03-05T01:37:00.422Z,2.23
2023-03-05T01:39:02.740Z,2.20
2023-03-05T01:41:04.487Z,2.21
2023-03-05T01:43:11.980Z,2.19
2023-03-05T01:45:17.147Z,2.19
2023-03-05T01:47:18.620Z,2.16
2023-03-05T01:49:27.923Z,2.17
2023-03-05T01:51:33.886Z,2.14
2023-03-05T01:53:36.375Z,2.15
2023-03-05T01:55:38.112Z,2.13
2023-03-05T01:57:48.775Z,2.15
2023-03-05T01:59:53.894Z,2.15
2023-03-05T02:01:57.705Z,2.14
2023-03-05T02:04:00.097Z,2.13
2023-03-05T02:06:01.606Z,2.13
2023-03-05T02:08:06.571Z,2.12
2023-03-05T02:10:22.886Z,2.11
2023-03-05T02:12:27.385Z,2.11
2023-03-05T02:14:29.061Z,2.12
2023-03-05T02:16:35.924Z,2.12
2023-03-05T02:18:37.550Z,2.10
2023-03-05T02:20:47.028Z,2.12
2023-03-05T02:22:48.559Z,2.11
2023-03-05T02:24:50.652Z,2.11
2023-03-05T02:26:52.226Z,2.13
2023-03-05T02:28:58.279Z,2.12
2023-03-05T02:30:59.797Z,2.10
2023-03-05T02:33:01.714Z,2.10
2023-03-05T02:35:03.358Z,2.07
2023-03-05T02:37:08.982Z,2.07
2023-03-05T02:39:10.481Z,2.07
2023-03-05T02:41:12.438Z,2.07
2023-03-05T02:43:13.983Z,2.06
2023-03-05T02:45:15.688Z,2.07
2023-03-05T02:47:17.146Z,2.07
2023-03-05T02:49:18.743Z,2.07
2023-03-05T02:51:20.230Z,2.08
2023-03-05T02:53:23.645Z,2.09
2023-03-05T02:55:25.162Z,2.09
2023-03-05T02:57:26.613Z,2.11
2023-03-05T02:59:28.106Z,2.09
2023-03-05T03:01:29.923Z,2.09
2023-03-05T03:03:31.537Z,2.08
2023-03-05T03:05:33.091Z,2.07
2023-03-05T03:07:36.519Z,2.07
2023-03-05T03:09:38.931Z,2.08
2023-03-05T03:11:40.418Z,2.07
2023-03-05T03:13:41.945Z,2.07
2023-03-05T03:15:43.516Z,2.07
2023-03-05T03:17:45.309Z,2.08
2023-03-05T03:19:46.943Z,2.10
2023-03-05T03:21:50.266Z,2.10
2023-03-05T03:23:51.775Z,2.10
2023-03-05T03:25:53.290Z,2.09
2023-03-05T03:27:54.777Z,2.10
2023-03-05T03:29:56.306Z,2.12
2023-03-05T03:31:58.202Z,2.11
2023-03-05T03:33:59.698Z,2.11
2023-03-05T03:36:01.424Z,2.12
2023-03-05T03:38:03.227Z,2.12
2023-03-05T03:40:06.189Z,2.11
2023-03-05T03:42:07.768Z,2.12
2023-03-05T03:44:10.682Z,2.15
2023-03-05T03:46:12.300Z,2.17
2023-03-05T03:48:13.834Z,2.16
2023-03-05T03:50:15.304Z,2.16
2023-03-05T03:52:17.355Z,2.17
2023-03-05T03:54:19.460Z,2.17
2023-03-05T03:56:20.940Z,2.17
2023-03-05T03:58:22.401Z,2.22
2023-03-05T04:00:24.015Z,2.18
2023-03-05T04:02:26.160Z,2.13
2023-03-05T04:04:29.145Z,2.12
2023-03-05T04:06:31.390Z,2.10
2023-03-05T04:08:32.862Z,2.11
2023-03-05T04:10:34.324Z,2.10
2023-03-05T04:12:35.779Z,2.10
2023-03-05T04:14:37.300Z,2.10
2023-03-05T04:16:38.778Z,2.11
2023-03-05T04:18:40.601Z,2.10
2023-03-05T04:20:42.101Z,2.11
2023-03-05T04:22:43.592Z,2.11
2023-03-05T04:24:45.152Z,2.07
2023-03-05T04:26:46.605Z,2.06
2023-03-05T04:28:48.350Z,2.04
2023-03-05T04:30:49.904Z,2.03
2023-03-05T04:32:51.399Z,2.00
2023-03-05T04:34:52.835Z,1.97
2023-03-05T04:36:54.308Z,1.96
2023-03-05T04:38:55.771Z,1.93
2023-03-05T04:40:57.232Z,1.92
2023-03-05T04:42:58.698Z,1.90
2023-03-05T04:45:00.185Z,1.89
2023-03-05T04:47:01.657Z,1.91
2023-03-05T04:49:03.169Z,1.91
2023-03-05T04:51:04.964Z,1.91
2023-03-05T04:53:06.655Z,1.91
2023-03-05T04:55:09.045Z,1.89
2023-03-05T04:57:10.517Z,1.89
2023-03-05T04:59:12.045Z,1.88
2023-03-05T05:01:13.667Z,1.89
2023-03-05T05:03:15.467Z,1.89
2023-03-05T05:05:22.081Z,1.90
2023-03-05T05:07:23.540Z,1.89
2023-03-05T05:09:25.866Z,1.89
2023-03-05T05:11:27.418Z,1.90
2023-03-05T05:13:30.027Z,1.91
2023-03-05T05:15:32.270Z,1.92
2023-03-05T05:17:34.390Z,1.91
2023-03-05T05:19:35.904Z,1.92
2023-03-05T05:21:37.452Z,1.91
2023-03-05T05:23:39.431Z,1.92
2023-03-05T05:25:41.338Z,1.92
2023-03-05T05:27:42.896Z,1.90
2023-03-05T05:29:46.320Z,1.88
2023-03-05T05:31:48.329Z,1.83
2023-03-05T05:33:50.063Z,1.79
2023-03-05T05:35:51.643Z,1.72
2023-03-05T05:37:53.180Z,1.63
2023-03-05T05:39:54.848Z,1.52
2023-03-05T05:41:56.346Z,1.51
2023-03-05T05:43:57.883Z,1.47
2023-03-05T05:46:05.154Z,1.49
2023-03-05T05:48:07.444Z,1.48
2023-03-05T05:50:10.827Z,1.52
2023-03-05T05:52:13.249Z,1.53
2023-03-05T05:54:15.455Z,1.61
2023-03-05T05:56:18.106Z,1.63
2023-03-05T05:58:19.650Z,1.66
2023-03-05T06:00:21.526Z,1.65
2023-03-05T06:02:23.033Z,1.65
2023-03-05T06:04:24.491Z,1.65
2023-03-05T06:06:27.394Z,1.65
2023-03-05T06:08:28.877Z,1.63
2023-03-05T06:10:30.362Z,1.62
2023-03-05T06:12:31.849Z,1.60
2023-03-05T06:14:33.523Z,1.57
2023-03-05T06:16:35.199Z,1.56
2023-03-05T06:18:36.924Z,1.55
2023-03-05T06:20:38.373Z,1.56
2023-03-05T06:22:40.406Z,1.54
2023-03-05T06:24:41.903Z,1.52
2023-03-05T06:26:43.365Z,1.51
2023-03-05T06:28:44.872Z,1.50
2023-03-05T06:30:46.502Z,1.50
2023-03-05T06:32:48.021Z,1.50
2023-03-05T06:34:50.501Z,1.51
2023-03-05T06:36:52.029Z,1.51
2023-03-05T06:38:54.102Z,1.52
2023-03-05T06:40:55.537Z,1.52
2023-03-05T06:42:57.017Z,1.55
2023-03-05T06:44:58.475Z,1.57
2023-03-05T06:46:59.905Z,1.61
2023-03-05T06:49:02.645Z,1.62
2023-03-05T06:51:04.616Z,1.66
2023-03-05T06:53:06.076Z,1.67
2023-03-05T06:55:08.354Z,1.67
2023-03-05T06:57:10.605Z,1.68
2023-03-05T06:59:13.704Z,1.70
2023-03-05T07:01:15.976Z,1.73
2023-03-05T07:03:18.187Z,1.75
2023-03-05T07:05:19.628Z,1.78
2023-03-05T07:07:21.069Z,1.81
2023-03-05T07:09:22.623Z,1.82
2023-03-05T07:11:25.066Z,1.84
2023-03-05T07:13:27.203Z,1.86
2023-03-05T07:15:28.666Z,1.89
2023-03-05T07:17:30.108Z,1.90
2023-03-05T07:19:31.635Z,1.92
2023-03-05T07:21:34.978Z,1.90
2023-03-05T07:23:37.502Z,1.89
2023-03-05T07:25:39.672Z,1.91
2023-03-05T07:27:41.112Z,1.92
2023-03-05T07:29:42.555Z,1.95
2023-03-05T07:31:44.006Z,1.96
2023-03-05T07:33:50.559Z,2.02
2023-03-05T07:35:52.127Z,2.05
2023-03-05T07:37:54.960Z,2.10
2023-03-05T07:39:56.440Z,2.15
2023-03-05T07:41:57.920Z,2.13
2023-03-05T07:43:59.485Z,2.14
2023-03-05T07:46:07.592Z,2.14
2023-03-05T07:48:13.866Z,2.14
2023-03-05T07:50:15.438Z,2.12
2023-03-05T07:52:16.894Z,2.11
2023-03-05T07:54:18.436Z,2.13
2023-03-05T07:56:25.869Z,2.14
2023-03-05T07:58:27.400Z,2.14
2023-03-05T08:00:29.029Z,2.11
2023-03-05T08:02:30.540Z,2.13
2023-03-05T08:04:32.144Z,2.16
2023-03-05T08:06:33.757Z,2.18
2023-03-05T08:08:36.252Z,2.16
2023-03-05T08:10:38.513Z,2.18
2023-03-05T08:12:40.022Z,2.20
2023-03-05T08:14:41.491Z,2.22
2023-03-05T08:16:42.965Z,2.25
2023-03-05T08:18:45.289Z,2.27
2023-03-05T08:20:46.794Z,2.31
2023-03-05T08:22:48.259Z,2.33
2023-03-05T08:24:50.587Z,2.33
2023-03-05T08:26:52.053Z,2.41
2023-03-05T08:28:54.167Z,2.47
2023-03-05T08:30:55.655Z,2.54
2023-03-05T08:32:57.389Z,2.59
2023-03-05T08:34:58.988Z,2.60
2023-03-05T08:37:00.480Z,2.62
2023-03-05T08:39:01.969Z,2.69
2023-03-05T08:41:03.753Z,2.78
2023-03-05T08:43:06.224Z,2.88
2023-03-05T08:45:09.187Z,2.96
2023-03-05T08:47:10.663Z,3.02
2023-03-05T08:49:12.159Z,3.10
2023-03-05T08:51:16.412Z,3.13
2023-03-05T08:53:17.961Z,3.15
2023-03-05T08:55:19.540Z,3.16
2023-03-05T08:57:21.124Z,3.11
2023-03-05T08:59:22.594Z,3.10
2023-03-05T09:01:24.190Z,3.09
2023-03-05T09:03:26.012Z,3.07
2023-03-05T09:05:27.590Z,3.07
2023-03-05T09:07:29.071Z,3.05
2023-03-05T09:09:32.575Z,3.05
2023-03-05T09:11:36.175Z,3.05
2023-03-05T09:13:37.719Z,3.04
2023-03-05T09:15:39.469Z,3.05
2023-03-05T09:17:42.344Z,3.02
2023-03-05T09:19:44.002Z,2.97
2023-03-05T09:21:45.453Z,2.97
2023-03-05T09:23:47.337Z,3.00
2023-03-05T09:25:49.635Z,3.11
2023-03-05T09:27:51.092Z,3.16
2023-03-05T09:29:53.273Z,3.17
2023-03-05T09:31:54.879Z,3.19
2023-03-05T09:33:56.355Z,3.18
2023-03-05T09:35:58.001Z,3.18
2023-03-05T09:37:59.482Z,3.15
2023-03-05T09:40:01.310Z,3.13
2023-03-05T09:42:23.341Z,3.15
2023-03-05T09:44:58.581Z,3.18
2023-03-05T09:47:21.806Z,3.21
2023-03-05T09:49:50.880Z,3.24
2023-03-05T09:51:57.587Z,3.26
2023-03-05T09:54:12.274Z,3.34
2023-03-05T09:56:16.869Z,3.33
2023-03-05T09:58:31.006Z,3.38
2023-03-05T10:00:45.045Z,3.44
2023-03-05T10:02:58.477Z,3.48
2023-03-05T10:05:18.930Z,3.49
2023-03-05T10:07:26.236Z,3.51
2023-03-05T10:09:49.321Z,3.54
2023-03-05T10:12:28.703Z,3.68
2023-03-05T10:14:34.304Z,3.85
2023-03-05T10:16:50.725Z,4.00
2023-03-05T10:19:04.110Z,4.07
2023-03-05T10:21:30.692Z,4.07
2023-03-05T10:23:47.174Z,4.13
2023-03-05T10:26:01.574Z,4.22
2023-03-05T10:28:09.423Z,4.21
2023-03-05T10:30:38.408Z,4.26
2023-03-05T10:33:15.379Z,4.35
2023-03-05T10:35:25.907Z,4.48
2023-03-05T10:37:55.414Z,4.56
2023-03-05T10:40:18.285Z,4.54
2023-03-05T10:42:28.695Z,4.57
2023-03-05T10:44:44.632Z,4.63
2023-03-05T10:46:48.114Z,4.68
2023-03-05T10:49:06.352Z,4.73
2023-03-05T10:51:31.583Z,4.69
2023-03-05T10:53:44.826Z,4.58
2023-03-05T10:55:46.313Z,4.49
2023-03-05T10:57:48.405Z,4.41
2023-03-05T10:59:51.133Z,4.39
2023-03-05T11:02:04.979Z,4.35
2023-03-05T11:04:28.477Z,4.35
2023-03-05T11:06:34.249Z,4.39
2023-03-05T11:08:36.286Z,4.45
2023-03-05T11:10:37.747Z,4.54
2023-03-05T11:12:39.545Z,4.67
2023-03-05T11:15:10.306Z,4.78
2023-03-05T11:17:37.778Z,4.89
2023-03-05T11:19:41.354Z,4.97
2023-03-05T11:21:44.280Z,5.08
2023-03-05T11:24:21.358Z,5.16
2023-03-05T11:26:23.218Z,5.21
2023-03-05T11:28:33.702Z,5.19
2023-03-05T11:30:36.841Z,5.12
2023-03-05T11:32:38.458Z,5.02
2023-03-05T11:34:40.203Z,5.00
2023-03-05T11:36:43.806Z,4.91
2023-03-05T11:39:08.589Z,4.74
2023-03-05T11:41:10.808Z,4.52
2023-03-05T11:43:18.941Z,4.43
2023-03-05T11:45:20.955Z,4.23
2023-03-05T11:47:34.149Z,4.10
2023-03-05T11:49:43.687Z,3.96
2023-03-05T11:52:08.085Z,3.81
2023-03-05T11:54:16.493Z,3.73
2023-03-05T11:56:26.972Z,3.81
2023-03-05T11:58:39.209Z,3.92
2023-03-05T12:00:44.683Z,3.80
2023-03-05T12:02:52.313Z,3.91
2023-03-05T12:04:53.993Z,4.43
2023-03-05T12:07:02.179Z,4.94
2023-03-05T12:09:11.887Z,5.11
2023-03-05T12:11:18.807Z,5.03
2023-03-05T12:13:28.931Z,5.09
2023-03-05T12:15:46.825Z,5.38
2023-03-05T12:18:03.629Z,5.95
2023-03-05T12:20:11.092Z,6.39
2023-03-05T12:22:20.043Z,6.67
2023-03-05T12:24:27.544Z,6.88
2023-03-05T12:26:59.257Z,7.11
2023-03-05T12:29:01.279Z,7.18
2023-03-05T12:31:27.540Z,7.28
2023-03-05T12:33:43.925Z,7.44
2023-03-05T12:35:45.426Z,7.30
2023-03-05T12:37:50.104Z,7.14
2023-03-05T12:40:04.683Z,6.97
2023-03-05T12:42:45.880Z,6.96
2023-03-05T12:45:09.962Z,7.13
2023-03-05T12:47:11.388Z,7.22
2023-03-05T12:49:18.982Z,7.22
2023-03-05T12:51:35.872Z,7.02
2023-03-05T12:53:37.551Z,6.74
2023-03-05T12:55:47.946Z,6.50
2023-03-05T12:58:11.680Z,6.30
2023-03-05T13:00:26.975Z,6.02
2023-03-05T13:02:34.497Z,5.81
2023-03-05T13:04:46.249Z,5.68
2023-03-05T13:07:02.403Z,5.78
2023-03-05T13:09:15.788Z,5.93
2023-03-05T13:11:21.084Z,6.28
2023-03-05T13:13:25.669Z,6.54
2023-03-05T13:15:27.184Z,6.66
2023-03-05T13:17:35.354Z,6.71
2023-03-05T13:19:36.845Z,6.94
2023-03-05T13:21:38.380Z,7.15
2023-03-05T13:23:52.290Z,7.08
2023-03-05T13:25:59.372Z,6.86
2023-03-05T13:28:07.158Z,6.66
2023-03-05T13:30:22.094Z,6.43
2023-03-05T13:32:33.187Z,6.44
2023-03-05T13:34:47.761Z,6.51
2023-03-05T13:37:25.127Z,6.45
2023-03-05T13:39:30.049Z,6.44
2023-03-05T13:41:31.570Z,6.60
2023-03-05T13:43:33.130Z,6.52
2023-03-05T13:45:34.681Z,6.33
2023-03-05T13:47:37.057Z,6.21
2023-03-05T13:49:38.522Z,6.07
2023-03-05T13:51:49.759Z,5.81
2023-03-05T13:53:52.108Z,5.48
2023-03-05T13:55:59.083Z,5.19
2023-03-05T13:58:00.606Z,4.98
2023-03-05T14:00:02.610Z,4.90
2023-03-05T14:02:15.815Z,4.95
2023-03-05T14:04:27.487Z,4.90
2023-03-05T14:06:30.984Z,4.80
2023-03-05T14:08:33.321Z,4.76
2023-03-05T14:10:37.378Z,4.72
2023-03-05T14:12:42.584Z,4.72
2023-03-05T14:14:44.403Z,4.80
2023-03-05T14:16:45.987Z,4.91
2023-03-05T14:18:59.197Z,5.09
2023-03-05T14:21:09.923Z,5.16
2023-03-05T14:23:32.858Z,5.19
2023-03-05T14:25:38.575Z,5.31
2023-03-05T14:27:40.077Z,5.45
2023-03-05T14:29:46.504Z,5.56
2023-03-05T14:31:58.669Z,5.76
2023-03-05T14:34:06.332Z,6.02
2023-03-05T14:36:10.585Z,6.04
2023-03-05T14:38:22.264Z,6.08
2023-03-05T14:40:33.440Z,6.01
2023-03-05T14:42:55.365Z,5.81
2023-03-05T14:45:01.675Z,5.71
2023-03-05T14:47:03.168Z,5.62
2023-03-05T14:49:04.677Z,5.56
2023-03-05T14:51:07.686Z,5.48
2023-03-05T14:53:15.256Z,5.41
2023-03-05T14:55:22.794Z,5.31
2023-03-05T14:57:29.484Z,5.17
2023-03-05T14:59:30.976Z,5.06
2023-03-05T15:01:32.510Z,5.00
2023-03-05T15:03:34.017Z,4.95
2023-03-05T15:05:37.853Z,4.71
2023-03-05T15:07:39.377Z,4.58
2023-03-05T15:09:40.801Z,4.41
2023-03-05T15:11:42.262Z,4.39
2023-03-05T15:13:43.805Z,4.32
2023-03-05T15:15:47.277Z,4.35
2023-03-05T15:17:56.044Z,4.31
2023-03-05T15:19:57.497Z,4.37
2023-03-05T15:21:58.956Z,4.48
2023-03-05T15:24:00.458Z,4.54
2023-03-05T15:26:05.513Z,4.51
2023-03-05T15:28:07.097Z,4.49
2023-03-05T15:30:14.837Z,4.54
2023-03-05T15:32:16.598Z,4.57
2023-03-05T15:34:18.066Z,4.57
2023-03-05T15:36:19.522Z,4.58
2023-03-05T15:38:21.645Z,4.59
2023-03-05T15:40:23.526Z,4.57
2023-03-05T15:42:24.956Z,4.56
2023-03-05T15:44:26.750Z,4.58
2023-03-05T15:46:28.337Z,4.54
2023-03-05T15:48:29.870Z,4.44
2023-03-05T15:50:31.626Z,4.43
2023-03-05T15:52:33.197Z,4.34
2023-03-05T15:54:35.500Z,4.33
2023-03-05T15:56:37.054Z,4.30
2023-03-05T15:58:39.511Z,4.27
2023-03-05T16:00:41.017Z,4.28
2023-03-05T16:02:42.586Z,4.24
2023-03-05T16:04:44.351Z,4.21
2023-03-05T16:06:48.003Z,4.18
2023-03-05T16:08:53.550Z,4.15
2023-03-05T16:10:55.004Z,4.16
2023-03-05T16:13:04.124Z,4.14
2023-03-05T16:15:06.338Z,4.13
2023-03-05T16:17:08.701Z,4.12
2023-03-05T16:19:12.997Z,4.13
2023-03-05T16:21:14.647Z,4.14
2023-03-05T16:23:16.161Z,4.15
2023-03-05T16:25:18.086Z,4.14
2023-03-05T16:27:19.592Z,4.13
2023-03-05T16:29:21.039Z,4.10
2023-03-05T16:31:22.630Z,4.10
2023-03-05T16:33:25.617Z,4.10
2023-03-05T16:35:27.190Z,4.10
2023-03-05T16:37:28.705Z,4.07
2023-03-05T16:39:30.639Z,4.07
2023-03-05T16:41:32.750Z,4.07
2023-03-05T16:43:34.205Z,4.10
2023-03-05T16:45:37.221Z,4.09
2023-03-05T16:47:39.771Z,4.06
2023-03-05T16:49:41.446Z,4.07
2023-03-05T16:51:42.898Z,4.05
2023-03-05T16:53:44.479Z,4.05
2023-03-05T16:55:45.938Z,4.04
2023-03-05T16:57:47.459Z,4.00
2023-03-05T16:59:48.911Z,3.91
2023-03-05T17:01:50.499Z,3.89
2023-03-05T17:03:53.487Z,3.84
2023-03-05T17:05:55.326Z,3.83
2023-03-05T17:07:56.960Z,3.79
2023-03-05T17:09:58.517Z,3.77
2023-03-05T17:12:00.133Z,3.75
2023-03-05T17:14:03.898Z,3.71
2023-03-05T17:16:06.446Z,3.67
2023-03-05T17:18:08.213Z,3.66
2023-03-05T17:20:10.636Z,3.64
2023-03-05T17:22:12.913Z,3.66
2023-03-05T17:24:14.386Z,3.67
2023-03-05T17:26:17.861Z,3.65
2023-03-05T17:28:19.851Z,3.64
2023-03-05T17:30:21.353Z,3.64
2023-03-05T17:32:22.971Z,3.66
2023-03-05T17:34:35.719Z,3.64
2023-03-05T17:36:39.216Z,3.65
2023-03-05T17:38:40.729Z,3.65
2023-03-05T17:40:42.381Z,3.67
2023-03-05T17:42:43.970Z,3.63
2023-03-05T17:44:45.444Z,3.65
2023-03-05T17:46:47.134Z,3.66
2023-03-05T17:48:48.614Z,3.65
2023-03-05T17:50:50.187Z,3.65
2023-03-05T17:52:51.727Z,3.64
2023-03-05T17:54:53.328Z,3.65
2023-03-05T17:56:56.016Z,3.67
2023-03-05T17:58:57.549Z,3.66
2023-03-05T18:01:00.287Z,3.67
2023-03-05T18:03:02.490Z,3.66
2023-03-05T18:05:04.287Z,3.67
2023-03-05T18:07:06.145Z,3.71
2023-03-05T18:09:07.723Z,3.72
2023-03-05T18:11:09.190Z,3.75
2023-03-05T18:13:10.721Z,3.76
2023-03-05T18:15:14.645Z,3.81
2023-03-05T18:17:16.407Z,3.83
2023-03-05T18:19:18.707Z,3.84
2023-03-05T18:21:21.509Z,3.84
2023-03-05T18:23:23.159Z,3.87
2023-03-05T18:25:30.731Z,3.85
2023-03-05T18:27:32.215Z,3.86
2023-03-05T18:29:34.011Z,3.86
2023-03-05T18:31:35.504Z,3.86
2023-03-05T18:33:38.877Z,3.87
2023-03-05T18:35:40.376Z,3.86
2023-03-05T18:37:41.999Z,3.86
2023-03-05T18:39:43.512Z,3.86
2023-03-05T18:41:46.638Z,3.86
2023-03-05T18:43:48.393Z,3.82
2023-03-05T18:45:51.994Z,3.82
2023-03-05T18:47:54.372Z,3.80
2023-03-05T18:49:56.429Z,3.78
2023-03-05T18:51:57.878Z,3.77
2023-03-05T18:53:59.346Z,3.77
2023-03-05T18:56:01.623Z,3.74
2023-03-05T18:58:03.386Z,3.71
2023-03-05T19:00:05.430Z,3.73
2023-03-05T19:02:14.117Z,3.73
2023-03-05T19:04:15.630Z,3.73
2023-03-05T19:06:17.958Z,3.71
2023-03-05T19:08:20.280Z,3.70
2023-03-05T19:10:22.724Z,3.66
2023-03-05T19:12:30.825Z,3.66
2023-03-05T19:14:32.280Z,3.66
2023-03-05T19:16:40.416Z,3.64
2023-03-05T19:18:57.176Z,3.62
2023-03-05T19:20:58.642Z,3.60
2023-03-05T19:23:00.096Z,3.61
2023-03-05T19:25:01.780Z,3.62
2023-03-05T19:27:10.128Z,3.62
2023-03-05T19:29:12.348Z,3.60
2023-03-05T19:31:14.783Z,3.60
2023-03-05T19:33:16.262Z,3.60
2023-03-05T19:35:18.300Z,3.62
2023-03-05T19:37:20.112Z,3.63
2023-03-05T19:39:21.630Z,3.61
2023-03-05T19:41:23.470Z,3.61
2023-03-05T19:43:24.914Z,3.59
2023-03-05T19:45:26.379Z,3.58
2023-03-05T19:47:28.092Z,3.58
2023-03-05T19:49:29.979Z,3.60
2023-03-05T19:51:31.463Z,3.58
2023-03-05T19:53:32.996Z,3.59
2023-03-05T19:55:39.175Z,3.60
2023-03-05T19:57:40.639Z,3.58
2023-03-05T19:59:44.086Z,3.63
2023-03-05T20:01:46.078Z,3.63
2023-03-05T20:03:49.375Z,3.65
2023-03-05T20:05:50.871Z,3.66
2023-03-05T20:07:53.602Z,3.64
2023-03-05T20:09:55.526Z,3.63
2023-03-05T20:11:58.300Z,3.63
2023-03-05T20:13:59.829Z,3.63
2023-03-05T20:16:01.575Z,3.65
2023-03-05T20:18:03.157Z,3.66
2023-03-05T20:20:05.137Z,3.65
2023-03-05T20:22:06.766Z,3.65
2023-03-05T20:24:12.037Z,3.64
2023-03-05T20:26:13.566Z,3.63
2023-03-05T20:28:15.169Z,3.62
2023-03-05T20:30:17.936Z,3.63
2023-03-05T20:32:19.543Z,3.64
2023-03-05T20:34:21.153Z,3.64
2023-03-05T20:36:23.767Z,3.62
2023-03-05T20:38:29.542Z,3.62
2023-03-05T20:40:30.991Z,3.61
2023-03-05T20:42:33.132Z,3.61
2023-03-05T20:44:34.644Z,3.61
2023-03-05T20:46:41.847Z,3.62
2023-03-05T20:48:43.757Z,3.61
2023-03-05T20:50:46.820Z,3.61
2023-03-05T20:52:48.265Z,3.59
2023-03-05T20:54:49.765Z,3.58
2023-03-05T20:56:51.262Z,3.62
2023-03-05T20:58:52.717Z,3.63
2023-03-05T21:00:54.800Z,3.61
2023-03-05T21:02:56.522Z,3.59
2023-03-05T21:04:58.023Z,3.60
2023-03-05T21:06:59.467Z,3.60
2023-03-05T21:09:01.013Z,3.60
2023-03-05T21:11:07.972Z,3.58
2023-03-05T21:13:09.425Z,3.57
2023-03-05T21:15:17.311Z,3.57
2023-03-05T21:17:19.611Z,3.54
2023-03-05T21:19:21.053Z,3.52
2023-03-05T21:21:22.657Z,3.52
2023-03-05T21:23:24.165Z,3.54
2023-03-05T21:25:30.164Z,3.54
2023-03-05T21:27:31.614Z,3.53
2023-03-05T21:29:33.074Z,3.53
2023-03-05T21:31:34.677Z,3.52
2023-03-05T21:33:37.431Z,3.51
2023-03-05T21:35:40.358Z,3.50
2023-03-05T21:37:42.864Z,3.49
2023-03-05T21:39:44.340Z,3.52
2023-03-05T21:41:47.157Z,3.51
2023-03-05T21:43:48.806Z,3.50
2023-03-05T21:45:53.495Z,3.48
2023-03-05T21:47:56.221Z,3.50
2023-03-05T21:49:57.861Z,3.50
2023-03-05T21:52:09.052Z,3.50
2023-03-05T21:54:10.567Z,3.49
2023-03-05T21:56:12.873Z,3.51
2023-03-05T21:58:14.698Z,3.51
2023-03-05T22:00:22.541Z,3.51
2023-03-05T22:02:24.794Z,3.49
2023-03-05T22:04:26.289Z,3.47
2023-03-05T22:06:27.763Z,3.46
2023-03-05T22:08:29.994Z,3.47
2023-03-05T22:10:31.518Z,3.44
2023-03-05T22:13:02.190Z,3.43
2023-03-05T22:15:03.944Z,3.43
2023-03-05T22:17:05.568Z,3.43
2023-03-05T22:19:07.162Z,3.41
2023-03-05T22:21:17.035Z,3.43
2023-03-05T22:23:23.167Z,3.42
2023-03-05T22:25:24.640Z,3.42
2023-03-05T22:27:26.081Z,3.44
2023-03-05T22:29:28.559Z,3.44
2023-03-05T22:31:30.561Z,3.43
2023-03-05T22:33:32.459Z,3.41
2023-03-05T22:35:33.936Z,3.44
2023-03-05T22:37:35.453Z,3.42
2023-03-05T22:39:36.980Z,3.42
2023-03-05T22:41:40.763Z,3.43
2023-03-05T22:43:42.356Z,3.43
2023-03-05T22:45:44.007Z,3.44
2023-03-05T22:47:51.594Z,3.44
2023-03-05T22:49:53.571Z,3.44
2023-03-05T22:51:55.029Z,3.46
2023-03-05T22:53:56.502Z,3.47
2023-03-05T22:55:58.082Z,3.46
2023-03-05T22:57:59.633Z,3.47
2023-03-05T23:00:01.080Z,3.47
2023-03-05T23:02:02.900Z,3.47
2023-03-05T23:04:13.365Z,3.45
2023-03-05T23:06:14.873Z,3.47
2023-03-05T23:08:16.323Z,3.49
2023-03-05T23:10:24.935Z,3.47
2023-03-05T23:12:30.336Z,3.46
2023-03-05T23:14:31.827Z,3.47
2023-03-05T23:16:33.275Z,3.47
2023-03-05T23:18:34.788Z,3.45
2023-03-05T23:20:37.284Z,3.44
2023-03-05T23:22:39.971Z,3.45
2023-03-05T23:24:41.530Z,3.46
2023-03-05T23:26:43.029Z,3.47
2023-03-05T23:28:44.568Z,3.42
2023-03-05T23:30:46.193Z,3.29
2023-03-05T23:32:52.801Z,3.15
2023-03-05T23:34:55.837Z,2.98
2023-03-05T23:37:00.520Z,2.74
2023-03-05T23:39:01.983Z,2.48
2023-03-05T23:41:08.597Z,2.23
2023-03-05T23:43:10.861Z,2.13
2023-03-05T23:45:14.437Z,2.10
2023-03-05T23:47:15.890Z,1.93
2023-03-05T23:49:17.348Z,1.79
2023-03-05T23:51:19.129Z,1.73
2023-03-05T23:53:24.106Z,1.69
2023-03-05T23:55:28.579Z,1.60
2023-03-05T23:57:30.323Z,1.55
2023-03-05T23:59:32.155Z,1.54
